sensor_id;sensor_type;location;lat;lon;timestamp;P1;durP1;ratioP1;P2;durP2;ratioP2
11443;SDS011;5778;47.856;12.154;2022-12-11T00:01:33;53.20;;;31.77;;
11443;SDS011;5778;47.856;12.154;2022-12-11T00:04:01;51.17;;;31.47;;
11443;SDS011;5778;47.856;12.154;2022-12-11T00:06:29;53.13;;;30.50;;
11443;SDS011;5778;47.856;12.154;2022-12-11T00:08:56;50.30;;;29.37;;
11443;SDS011;5778;47.856;12.154;2022-12-11T00:11:23;50.93;;;29.87;;
11443;SDS011;5778;47.856;12.154;2022-12-11T00:13:50;48.03;;;28.60;;
11443;SDS011;5778;47.856;12.154;2022-12-11T00:16:17;47.83;;;28.70;;
11443;SDS011;5778;47.856;12.154;2022-12-11T00:18:43;47.17;;;28.47;;
11443;SDS011;5778;47.856;12.154;2022-12-11T00:21:12;47.13;;;28.70;;
11443;SDS011;5778;47.856;12.154;2022-12-11T00:23:41;49.87;;;29.60;;
11443;SDS011;5778;47.856;12.154;2022-12-11T00:26:11;52.60;;;30.53;;
11443;SDS011;5778;47.856;12.154;2022-12-11T00:28:40;50.23;;;30.27;;
11443;SDS011;5778;47.856;12.154;2022-12-11T00:31:09;49.83;;;28.80;;
11443;SDS011;5778;47.856;12.154;2022-12-11T00:33:39;52.00;;;31.30;;
11443;SDS011;5778;47.856;12.154;2022-12-11T00:36:10;50.50;;;30.13;;
11443;SDS011;5778;47.856;12.154;2022-12-11T00:38:38;50.67;;;29.50;;
11443;SDS011;5778;47.856;12.154;2022-12-11T00:41:06;49.57;;;29.53;;
11443;SDS011;5778;47.856;12.154;2022-12-11T00:43:33;46.53;;;28.77;;
11443;SDS011;5778;47.856;12.154;2022-12-11T00:46:00;48.97;;;28.27;;
11443;SDS011;5778;47.856;12.154;2022-12-11T00:48:27;48.70;;;30.23;;
11443;SDS011;5778;47.856;12.154;2022-12-11T00:50:53;48.23;;;29.60;;
11443;SDS011;5778;47.856;12.154;2022-12-11T00:53:21;50.60;;;31.00;;
11443;SDS011;5778;47.856;12.154;2022-12-11T00:55:48;49.80;;;29.77;;
11443;SDS011;5778;47.856;12.154;2022-12-11T00:58:16;51.13;;;30.77;;
11443;SDS011;5778;47.856;12.154;2022-12-11T01:00:43;48.73;;;29.10;;
11443;SDS011;5778;47.856;12.154;2022-12-11T01:03:13;54.70;;;30.70;;
11443;SDS011;5778;47.856;12.154;2022-12-11T01:05:40;46.83;;;28.33;;
11443;SDS011;5778;47.856;12.154;2022-12-11T01:08:07;47.40;;;29.87;;
11443;SDS011;5778;47.856;12.154;2022-12-11T01:10:34;46.60;;;29.13;;
11443;SDS011;5778;47.856;12.154;2022-12-11T01:13:02;46.37;;;29.40;;
11443;SDS011;5778;47.856;12.154;2022-12-11T01:15:33;48.07;;;28.77;;
11443;SDS011;5778;47.856;12.154;2022-12-11T01:18:04;44.47;;;28.07;;
11443;SDS011;5778;47.856;12.154;2022-12-11T01:20:31;44.27;;;27.87;;
11443;SDS011;5778;47.856;12.154;2022-12-11T01:22:58;46.23;;;27.83;;
11443;SDS011;5778;47.856;12.154;2022-12-11T01:25:26;43.47;;;27.53;;
11443;SDS011;5778;47.856;12.154;2022-12-11T01:27:54;48.87;;;29.27;;
11443;SDS011;5778;47.856;12.154;2022-12-11T01:30:23;47.67;;;28.83;;
11443;SDS011;5778;47.856;12.154;2022-12-11T01:32:52;45.03;;;28.90;;
11443;SDS011;5778;47.856;12.154;2022-12-11T01:35:19;48.97;;;29.50;;
11443;SDS011;5778;47.856;12.154;2022-12-11T01:37:46;44.20;;;27.20;;
11443;SDS011;5778;47.856;12.154;2022-12-11T01:40:13;40.73;;;26.10;;
11443;SDS011;5778;47.856;12.154;2022-12-11T01:42:42;35.10;;;23.07;;
11443;SDS011;5778;47.856;12.154;2022-12-11T01:48:01;35.23;;;22.13;;
11443;SDS011;5778;47.856;12.154;2022-12-11T01:50:34;35.60;;;22.90;;
11443;SDS011;5778;47.856;12.154;2022-12-11T01:53:05;36.27;;;22.27;;
11443;SDS011;5778;47.856;12.154;2022-12-11T01:55:34;36.70;;;23.57;;
11443;SDS011;5778;47.856;12.154;2022-12-11T01:58:04;32.57;;;21.00;;
11443;SDS011;5778;47.856;12.154;2022-12-11T02:00:31;29.17;;;19.93;;
11443;SDS011;5778;47.856;12.154;2022-12-11T02:03:00;30.40;;;20.07;;
11443;SDS011;5778;47.856;12.154;2022-12-11T02:05:27;30.83;;;20.67;;
11443;SDS011;5778;47.856;12.154;2022-12-11T02:07:54;29.40;;;20.33;;
11443;SDS011;5778;47.856;12.154;2022-12-11T02:10:26;30.90;;;18.90;;
11443;SDS011;5778;47.856;12.154;2022-12-11T02:13:06;28.73;;;19.27;;
11443;SDS011;5778;47.856;12.154;2022-12-11T02:15:41;29.90;;;20.07;;
11443;SDS011;5778;47.856;12.154;2022-12-11T02:18:17;30.30;;;19.90;;
11443;SDS011;5778;47.856;12.154;2022-12-11T02:20:52;32.47;;;21.40;;
11443;SDS011;5778;47.856;12.154;2022-12-11T02:23:42;30.97;;;20.60;;
11443;SDS011;5778;47.856;12.154;2022-12-11T02:26:23;33.10;;;20.60;;
11443;SDS011;5778;47.856;12.154;2022-12-11T02:29:10;31.70;;;20.33;;
11443;SDS011;5778;47.856;12.154;2022-12-11T02:31:44;32.47;;;20.47;;
11443;SDS011;5778;47.856;12.154;2022-12-11T02:34:17;33.27;;;21.83;;
11443;SDS011;5778;47.856;12.154;2022-12-11T02:36:48;33.77;;;22.07;;
11443;SDS011;5778;47.856;12.154;2022-12-11T02:39:18;34.87;;;21.07;;
11443;SDS011;5778;47.856;12.154;2022-12-11T02:41:48;34.17;;;21.73;;
11443;SDS011;5778;47.856;12.154;2022-12-11T02:44:18;34.57;;;21.73;;
11443;SDS011;5778;47.856;12.154;2022-12-11T02:46:50;35.67;;;22.27;;
11443;SDS011;5778;47.856;12.154;2022-12-11T02:49:18;34.13;;;20.93;;
11443;SDS011;5778;47.856;12.154;2022-12-11T02:51:47;34.50;;;21.63;;
11443;SDS011;5778;47.856;12.154;2022-12-11T02:54:16;32.73;;;21.57;;
11443;SDS011;5778;47.856;12.154;2022-12-11T02:56:48;32.90;;;21.43;;
11443;SDS011;5778;47.856;12.154;2022-12-11T02:59:23;33.67;;;21.60;;
11443;SDS011;5778;47.856;12.154;2022-12-11T03:01:55;33.70;;;21.93;;
11443;SDS011;5778;47.856;12.154;2022-12-11T03:04:22;34.17;;;21.57;;
11443;SDS011;5778;47.856;12.154;2022-12-11T03:06:50;32.10;;;21.10;;
11443;SDS011;5778;47.856;12.154;2022-12-11T03:13:26;33.87;;;21.17;;
11443;SDS011;5778;47.856;12.154;2022-12-11T03:16:00;33.87;;;20.87;;
11443;SDS011;5778;47.856;12.154;2022-12-11T03:21:47;31.37;;;21.17;;
11443;SDS011;5778;47.856;12.154;2022-12-11T03:24:20;33.50;;;21.67;;
11443;SDS011;5778;47.856;12.154;2022-12-11T03:26:53;33.17;;;20.07;;
11443;SDS011;5778;47.856;12.154;2022-12-11T03:29:25;30.30;;;19.77;;
11443;SDS011;5778;47.856;12.154;2022-12-11T03:31:59;33.37;;;21.83;;
11443;SDS011;5778;47.856;12.154;2022-12-11T03:34:34;31.10;;;20.30;;
11443;SDS011;5778;47.856;12.154;2022-12-11T03:37:06;30.50;;;20.03;;
11443;SDS011;5778;47.856;12.154;2022-12-11T03:39:36;28.73;;;20.43;;
11443;SDS011;5778;47.856;12.154;2022-12-11T03:42:08;29.60;;;19.60;;
11443;SDS011;5778;47.856;12.154;2022-12-11T03:44:38;30.03;;;20.10;;
11443;SDS011;5778;47.856;12.154;2022-12-11T03:47:10;33.27;;;19.77;;
11443;SDS011;5778;47.856;12.154;2022-12-11T03:49:43;30.63;;;19.90;;
11443;SDS011;5778;47.856;12.154;2022-12-11T03:52:13;28.30;;;18.83;;
11443;SDS011;5778;47.856;12.154;2022-12-11T03:54:41;32.00;;;20.00;;
11443;SDS011;5778;47.856;12.154;2022-12-11T03:57:12;28.77;;;19.80;;
11443;SDS011;5778;47.856;12.154;2022-12-11T03:59:41;31.47;;;19.97;;
11443;SDS011;5778;47.856;12.154;2022-12-11T04:02:11;32.13;;;20.90;;
11443;SDS011;5778;47.856;12.154;2022-12-11T04:04:39;29.27;;;18.63;;
11443;SDS011;5778;47.856;12.154;2022-12-11T04:07:07;29.53;;;18.60;;
11443;SDS011;5778;47.856;12.154;2022-12-11T04:09:35;27.90;;;18.37;;
11443;SDS011;5778;47.856;12.154;2022-12-11T04:12:02;30.70;;;18.73;;
11443;SDS011;5778;47.856;12.154;2022-12-11T04:14:28;29.23;;;18.63;;
11443;SDS011;5778;47.856;12.154;2022-12-11T04:17:16;28.50;;;18.80;;
11443;SDS011;5778;47.856;12.154;2022-12-11T04:19:58;29.47;;;19.50;;
11443;SDS011;5778;47.856;12.154;2022-12-11T04:22:42;29.70;;;18.83;;
11443;SDS011;5778;47.856;12.154;2022-12-11T04:25:26;27.97;;;18.07;;
11443;SDS011;5778;47.856;12.154;2022-12-11T04:27:53;28.50;;;18.60;;
11443;SDS011;5778;47.856;12.154;2022-12-11T04:30:21;28.83;;;18.53;;
11443;SDS011;5778;47.856;12.154;2022-12-11T04:32:51;27.63;;;18.63;;
11443;SDS011;5778;47.856;12.154;2022-12-11T04:35:20;29.23;;;18.07;;
11443;SDS011;5778;47.856;12.154;2022-12-11T04:37:47;26.87;;;17.90;;
11443;SDS011;5778;47.856;12.154;2022-12-11T04:40:16;25.43;;;17.17;;
11443;SDS011;5778;47.856;12.154;2022-12-11T04:42:44;25.70;;;16.70;;
11443;SDS011;5778;47.856;12.154;2022-12-11T04:45:13;25.13;;;17.03;;
11443;SDS011;5778;47.856;12.154;2022-12-11T04:47:40;29.97;;;19.00;;
11443;SDS011;5778;47.856;12.154;2022-12-11T04:50:10;25.90;;;16.90;;
11443;SDS011;5778;47.856;12.154;2022-12-11T04:52:39;26.60;;;17.10;;
11443;SDS011;5778;47.856;12.154;2022-12-11T04:55:08;24.43;;;16.17;;
11443;SDS011;5778;47.856;12.154;2022-12-11T04:57:35;25.53;;;16.90;;
11443;SDS011;5778;47.856;12.154;2022-12-11T05:00:03;26.33;;;17.67;;
11443;SDS011;5778;47.856;12.154;2022-12-11T05:02:33;24.63;;;16.50;;
11443;SDS011;5778;47.856;12.154;2022-12-11T05:05:01;27.03;;;17.40;;
11443;SDS011;5778;47.856;12.154;2022-12-11T05:07:31;22.63;;;16.10;;
11443;SDS011;5778;47.856;12.154;2022-12-11T05:09:58;25.00;;;16.37;;
11443;SDS011;5778;47.856;12.154;2022-12-11T05:12:25;22.77;;;15.77;;
11443;SDS011;5778;47.856;12.154;2022-12-11T05:14:53;24.40;;;16.17;;
11443;SDS011;5778;47.856;12.154;2022-12-11T05:17:20;25.87;;;16.90;;
11443;SDS011;5778;47.856;12.154;2022-12-11T05:19:48;22.27;;;16.13;;
11443;SDS011;5778;47.856;12.154;2022-12-11T05:22:15;25.10;;;16.43;;
11443;SDS011;5778;47.856;12.154;2022-12-11T05:24:45;23.67;;;16.50;;
11443;SDS011;5778;47.856;12.154;2022-12-11T05:27:13;25.50;;;16.93;;
11443;SDS011;5778;47.856;12.154;2022-12-11T05:29:40;22.77;;;15.63;;
11443;SDS011;5778;47.856;12.154;2022-12-11T05:32:07;23.37;;;15.67;;
11443;SDS011;5778;47.856;12.154;2022-12-11T05:34:34;22.07;;;15.07;;
11443;SDS011;5778;47.856;12.154;2022-12-11T05:37:01;23.27;;;15.40;;
11443;SDS011;5778;47.856;12.154;2022-12-11T05:39:28;22.67;;;15.70;;
11443;SDS011;5778;47.856;12.154;2022-12-11T05:41:56;22.30;;;15.43;;
11443;SDS011;5778;47.856;12.154;2022-12-11T05:44:24;21.83;;;15.07;;
11443;SDS011;5778;47.856;12.154;2022-12-11T05:46:52;22.47;;;15.17;;
11443;SDS011;5778;47.856;12.154;2022-12-11T05:49:20;22.33;;;15.60;;
11443;SDS011;5778;47.856;12.154;2022-12-11T05:51:47;20.43;;;15.07;;
11443;SDS011;5778;47.856;12.154;2022-12-11T05:54:14;20.13;;;14.43;;
11443;SDS011;5778;47.856;12.154;2022-12-11T05:56:41;22.23;;;15.33;;
11443;SDS011;5778;47.856;12.154;2022-12-11T05:59:09;21.20;;;14.50;;
11443;SDS011;5778;47.856;12.154;2022-12-11T06:01:38;20.90;;;14.40;;
11443;SDS011;5778;47.856;12.154;2022-12-11T06:04:06;20.97;;;14.80;;
11443;SDS011;5778;47.856;12.154;2022-12-11T06:06:34;20.90;;;14.73;;
11443;SDS011;5778;47.856;12.154;2022-12-11T06:09:03;21.03;;;14.27;;
11443;SDS011;5778;47.856;12.154;2022-12-11T06:11:31;21.40;;;15.50;;
11443;SDS011;5778;47.856;12.154;2022-12-11T06:13:59;24.00;;;17.00;;
11443;SDS011;5778;47.856;12.154;2022-12-11T06:16:28;24.40;;;15.13;;
11443;SDS011;5778;47.856;12.154;2022-12-11T06:18:56;21.70;;;14.97;;
11443;SDS011;5778;47.856;12.154;2022-12-11T06:21:24;24.87;;;15.77;;
11443;SDS011;5778;47.856;12.154;2022-12-11T06:23:55;23.67;;;15.40;;
11443;SDS011;5778;47.856;12.154;2022-12-11T06:26:24;22.60;;;15.37;;
11443;SDS011;5778;47.856;12.154;2022-12-11T06:28:53;22.30;;;15.37;;
11443;SDS011;5778;47.856;12.154;2022-12-11T06:31:20;25.20;;;16.17;;
11443;SDS011;5778;47.856;12.154;2022-12-11T06:33:49;22.10;;;15.73;;
11443;SDS011;5778;47.856;12.154;2022-12-11T06:36:16;23.03;;;16.33;;
11443;SDS011;5778;47.856;12.154;2022-12-11T06:38:44;24.67;;;17.33;;
11443;SDS011;5778;47.856;12.154;2022-12-11T06:41:12;23.67;;;15.80;;
11443;SDS011;5778;47.856;12.154;2022-12-11T06:43:40;22.90;;;15.43;;
11443;SDS011;5778;47.856;12.154;2022-12-11T06:46:09;28.37;;;16.30;;
11443;SDS011;5778;47.856;12.154;2022-12-11T06:48:37;25.47;;;15.83;;
11443;SDS011;5778;47.856;12.154;2022-12-11T06:51:06;25.33;;;16.70;;
11443;SDS011;5778;47.856;12.154;2022-12-11T06:53:35;29.23;;;18.90;;
11443;SDS011;5778;47.856;12.154;2022-12-11T06:56:03;26.27;;;16.87;;
11443;SDS011;5778;47.856;12.154;2022-12-11T06:58:30;24.37;;;15.87;;
11443;SDS011;5778;47.856;12.154;2022-12-11T07:01:00;23.10;;;15.90;;
11443;SDS011;5778;47.856;12.154;2022-12-11T07:03:28;25.37;;;18.00;;
11443;SDS011;5778;47.856;12.154;2022-12-11T07:05:58;39.63;;;24.03;;
11443;SDS011;5778;47.856;12.154;2022-12-11T07:08:28;26.90;;;17.70;;
11443;SDS011;5778;47.856;12.154;2022-12-11T07:11:01;26.40;;;17.87;;
11443;SDS011;5778;47.856;12.154;2022-12-11T07:13:29;25.30;;;16.77;;
11443;SDS011;5778;47.856;12.154;2022-12-11T07:15:56;32.40;;;19.50;;
11443;SDS011;5778;47.856;12.154;2022-12-11T07:18:24;32.73;;;19.83;;
11443;SDS011;5778;47.856;12.154;2022-12-11T07:20:52;39.20;;;23.10;;
11443;SDS011;5778;47.856;12.154;2022-12-11T07:23:19;37.53;;;21.53;;
11443;SDS011;5778;47.856;12.154;2022-12-11T07:25:47;51.40;;;26.97;;
11443;SDS011;5778;47.856;12.154;2022-12-11T07:28:14;40.37;;;22.97;;
11443;SDS011;5778;47.856;12.154;2022-12-11T07:30:42;38.10;;;21.83;;
11443;SDS011;5778;47.856;12.154;2022-12-11T07:33:09;40.77;;;24.40;;
11443;SDS011;5778;47.856;12.154;2022-12-11T07:35:36;41.80;;;23.83;;
11443;SDS011;5778;47.856;12.154;2022-12-11T07:38:04;35.03;;;22.00;;
11443;SDS011;5778;47.856;12.154;2022-12-11T07:40:31;32.83;;;21.53;;
11443;SDS011;5778;47.856;12.154;2022-12-11T07:43:00;28.20;;;19.67;;
11443;SDS011;5778;47.856;12.154;2022-12-11T07:45:28;24.33;;;16.43;;
11443;SDS011;5778;47.856;12.154;2022-12-11T07:47:54;24.70;;;15.77;;
11443;SDS011;5778;47.856;12.154;2022-12-11T07:50:22;21.23;;;14.67;;
11443;SDS011;5778;47.856;12.154;2022-12-11T07:52:49;21.77;;;14.77;;
11443;SDS011;5778;47.856;12.154;2022-12-11T07:55:16;31.70;;;18.07;;
11443;SDS011;5778;47.856;12.154;2022-12-11T07:57:43;78.33;;;35.73;;
11443;SDS011;5778;47.856;12.154;2022-12-11T08:00:12;51.40;;;26.93;;
11443;SDS011;5778;47.856;12.154;2022-12-11T08:02:40;34.33;;;20.27;;
11443;SDS011;5778;47.856;12.154;2022-12-11T08:05:07;27.20;;;17.60;;
11443;SDS011;5778;47.856;12.154;2022-12-11T08:07:35;33.30;;;20.03;;
11443;SDS011;5778;47.856;12.154;2022-12-11T08:10:03;26.83;;;16.60;;
11443;SDS011;5778;47.856;12.154;2022-12-11T08:12:30;19.83;;;14.33;;
11443;SDS011;5778;47.856;12.154;2022-12-11T08:14:57;18.20;;;13.37;;
11443;SDS011;5778;47.856;12.154;2022-12-11T08:17:25;20.43;;;13.07;;
11443;SDS011;5778;47.856;12.154;2022-12-11T08:19:52;21.47;;;15.00;;
11443;SDS011;5778;47.856;12.154;2022-12-11T08:22:19;23.27;;;14.83;;
11443;SDS011;5778;47.856;12.154;2022-12-11T08:24:46;21.83;;;14.83;;
11443;SDS011;5778;47.856;12.154;2022-12-11T08:27:14;20.87;;;13.73;;
11443;SDS011;5778;47.856;12.154;2022-12-11T08:29:42;18.67;;;13.67;;
11443;SDS011;5778;47.856;12.154;2022-12-11T08:32:10;19.83;;;14.10;;
11443;SDS011;5778;47.856;12.154;2022-12-11T08:34:39;20.00;;;13.90;;
11443;SDS011;5778;47.856;12.154;2022-12-11T08:37:06;19.17;;;13.50;;
11443;SDS011;5778;47.856;12.154;2022-12-11T08:39:33;19.10;;;13.67;;
11443;SDS011;5778;47.856;12.154;2022-12-11T08:42:00;20.30;;;14.07;;
11443;SDS011;5778;47.856;12.154;2022-12-11T08:44:27;16.93;;;12.80;;
11443;SDS011;5778;47.856;12.154;2022-12-11T08:46:54;18.07;;;13.90;;
11443;SDS011;5778;47.856;12.154;2022-12-11T08:49:21;20.07;;;12.97;;
11443;SDS011;5778;47.856;12.154;2022-12-11T08:51:49;17.20;;;12.77;;
11443;SDS011;5778;47.856;12.154;2022-12-11T08:54:17;15.97;;;12.13;;
11443;SDS011;5778;47.856;12.154;2022-12-11T08:56:44;16.43;;;12.30;;
11443;SDS011;5778;47.856;12.154;2022-12-11T08:59:11;16.73;;;12.97;;
11443;SDS011;5778;47.856;12.154;2022-12-11T09:01:38;18.03;;;12.53;;
11443;SDS011;5778;47.856;12.154;2022-12-11T09:04:06;17.47;;;12.70;;
11443;SDS011;5778;47.856;12.154;2022-12-11T09:06:33;15.97;;;12.80;;
11443;SDS011;5778;47.856;12.154;2022-12-11T09:09:02;15.83;;;12.13;;
11443;SDS011;5778;47.856;12.154;2022-12-11T09:11:30;24.00;;;14.93;;
11443;SDS011;5778;47.856;12.154;2022-12-11T09:13:59;19.47;;;13.60;;
11443;SDS011;5778;47.856;12.154;2022-12-11T09:16:26;17.53;;;12.80;;
11443;SDS011;5778;47.856;12.154;2022-12-11T09:18:55;16.33;;;12.57;;
11443;SDS011;5778;47.856;12.154;2022-12-11T09:21:23;16.97;;;13.23;;
11443;SDS011;5778;47.856;12.154;2022-12-11T09:23:52;16.60;;;12.87;;
11443;SDS011;5778;47.856;12.154;2022-12-11T09:26:21;17.57;;;13.30;;
11443;SDS011;5778;47.856;12.154;2022-12-11T09:28:49;18.13;;;13.07;;
11443;SDS011;5778;47.856;12.154;2022-12-11T09:31:18;16.53;;;12.33;;
11443;SDS011;5778;47.856;12.154;2022-12-11T09:33:47;16.77;;;13.27;;
11443;SDS011;5778;47.856;12.154;2022-12-11T09:36:15;18.97;;;13.30;;
11443;SDS011;5778;47.856;12.154;2022-12-11T09:38:43;18.77;;;12.30;;
11443;SDS011;5778;47.856;12.154;2022-12-11T09:41:25;17.17;;;12.93;;
11443;SDS011;5778;47.856;12.154;2022-12-11T09:44:17;18.30;;;14.33;;
11443;SDS011;5778;47.856;12.154;2022-12-11T09:46:49;20.53;;;13.57;;
11443;SDS011;5778;47.856;12.154;2022-12-11T09:49:22;19.30;;;13.43;;
11443;SDS011;5778;47.856;12.154;2022-12-11T09:51:59;18.30;;;13.33;;
11443;SDS011;5778;47.856;12.154;2022-12-11T09:54:32;18.10;;;13.10;;
11443;SDS011;5778;47.856;12.154;2022-12-11T09:57:04;18.23;;;12.93;;
11443;SDS011;5778;47.856;12.154;2022-12-11T09:59:41;16.73;;;12.87;;
11443;SDS011;5778;47.856;12.154;2022-12-11T10:02:21;17.20;;;12.70;;
11443;SDS011;5778;47.856;12.154;2022-12-11T10:04:57;19.10;;;12.93;;
11443;SDS011;5778;47.856;12.154;2022-12-11T10:07:37;19.57;;;13.50;;
11443;SDS011;5778;47.856;12.154;2022-12-11T10:10:12;16.97;;;12.13;;
11443;SDS011;5778;47.856;12.154;2022-12-11T10:12:53;18.57;;;12.73;;
11443;SDS011;5778;47.856;12.154;2022-12-11T10:15:29;18.47;;;12.60;;
11443;SDS011;5778;47.856;12.154;2022-12-11T10:18:03;15.37;;;11.90;;
11443;SDS011;5778;47.856;12.154;2022-12-11T10:20:35;15.70;;;11.90;;
11443;SDS011;5778;47.856;12.154;2022-12-11T10:23:06;18.73;;;12.43;;
11443;SDS011;5778;47.856;12.154;2022-12-11T10:25:39;16.43;;;12.13;;
11443;SDS011;5778;47.856;12.154;2022-12-11T10:28:11;17.70;;;13.47;;
11443;SDS011;5778;47.856;12.154;2022-12-11T10:30:40;18.43;;;13.40;;
11443;SDS011;5778;47.856;12.154;2022-12-11T10:33:14;19.23;;;14.20;;
11443;SDS011;5778;47.856;12.154;2022-12-11T10:35:47;19.07;;;13.80;;
11443;SDS011;5778;47.856;12.154;2022-12-11T10:38:16;17.97;;;13.43;;
11443;SDS011;5778;47.856;12.154;2022-12-11T10:40:50;17.17;;;13.10;;
11443;SDS011;5778;47.856;12.154;2022-12-11T10:43:30;17.33;;;11.70;;
11443;SDS011;5778;47.856;12.154;2022-12-11T10:45:58;16.97;;;13.47;;
11443;SDS011;5778;47.856;12.154;2022-12-11T10:48:25;18.93;;;13.60;;
11443;SDS011;5778;47.856;12.154;2022-12-11T10:50:56;17.97;;;13.00;;
11443;SDS011;5778;47.856;12.154;2022-12-11T10:53:25;19.30;;;12.30;;
11443;SDS011;5778;47.856;12.154;2022-12-11T10:55:53;17.50;;;13.60;;
11443;SDS011;5778;47.856;12.154;2022-12-11T10:58:24;17.20;;;12.93;;
11443;SDS011;5778;47.856;12.154;2022-12-11T11:01:02;17.27;;;12.57;;
11443;SDS011;5778;47.856;12.154;2022-12-11T11:03:32;17.03;;;12.90;;
11443;SDS011;5778;47.856;12.154;2022-12-11T11:06:02;18.23;;;13.53;;
11443;SDS011;5778;47.856;12.154;2022-12-11T11:08:38;16.33;;;12.57;;
11443;SDS011;5778;47.856;12.154;2022-12-11T11:11:12;16.70;;;12.07;;
11443;SDS011;5778;47.856;12.154;2022-12-11T11:13:48;16.20;;;12.40;;
11443;SDS011;5778;47.856;12.154;2022-12-11T11:16:15;15.47;;;11.73;;
11443;SDS011;5778;47.856;12.154;2022-12-11T11:18:48;16.20;;;13.17;;
11443;SDS011;5778;47.856;12.154;2022-12-11T11:21:19;14.97;;;11.50;;
11443;SDS011;5778;47.856;12.154;2022-12-11T11:23:49;18.43;;;13.67;;
11443;SDS011;5778;47.856;12.154;2022-12-11T11:26:17;15.57;;;12.27;;
11443;SDS011;5778;47.856;12.154;2022-12-11T11:28:48;19.00;;;12.80;;
11443;SDS011;5778;47.856;12.154;2022-12-11T11:31:18;17.47;;;12.67;;
11443;SDS011;5778;47.856;12.154;2022-12-11T11:33:49;18.73;;;13.43;;
11443;SDS011;5778;47.856;12.154;2022-12-11T11:36:22;17.80;;;13.60;;
11443;SDS011;5778;47.856;12.154;2022-12-11T11:38:56;19.07;;;14.13;;
11443;SDS011;5778;47.856;12.154;2022-12-11T11:41:31;21.47;;;15.30;;
11443;SDS011;5778;47.856;12.154;2022-12-11T11:44:08;22.20;;;14.33;;
11443;SDS011;5778;47.856;12.154;2022-12-11T11:46:41;16.97;;;12.00;;
11443;SDS011;5778;47.856;12.154;2022-12-11T11:49:14;22.33;;;16.23;;
11443;SDS011;5778;47.856;12.154;2022-12-11T11:51:52;20.27;;;14.60;;
11443;SDS011;5778;47.856;12.154;2022-12-11T11:54:27;18.57;;;13.50;;
11443;SDS011;5778;47.856;12.154;2022-12-11T11:57:02;22.07;;;16.00;;
11443;SDS011;5778;47.856;12.154;2022-12-11T11:59:38;17.17;;;13.07;;
11443;SDS011;5778;47.856;12.154;2022-12-11T12:17:28;19.07;;;14.10;;
11443;SDS011;5778;47.856;12.154;2022-12-11T12:20:03;21.43;;;16.23;;
11443;SDS011;5778;47.856;12.154;2022-12-11T12:22:46;21.40;;;15.53;;
11443;SDS011;5778;47.856;12.154;2022-12-11T12:25:21;21.63;;;14.87;;
11443;SDS011;5778;47.856;12.154;2022-12-11T12:27:55;21.30;;;15.20;;
11443;SDS011;5778;47.856;12.154;2022-12-11T12:30:30;23.40;;;15.70;;
11443;SDS011;5778;47.856;12.154;2022-12-11T12:33:10;20.77;;;14.73;;
11443;SDS011;5778;47.856;12.154;2022-12-11T12:35:48;19.43;;;13.93;;
11443;SDS011;5778;47.856;12.154;2022-12-11T12:38:22;17.70;;;12.07;;
11443;SDS011;5778;47.856;12.154;2022-12-11T12:40:57;18.30;;;12.80;;
11443;SDS011;5778;47.856;12.154;2022-12-11T12:43:43;17.73;;;12.63;;
11443;SDS011;5778;47.856;12.154;2022-12-11T12:46:19;20.97;;;14.87;;
11443;SDS011;5778;47.856;12.154;2022-12-11T12:48:54;22.07;;;15.30;;
11443;SDS011;5778;47.856;12.154;2022-12-11T12:51:24;19.23;;;14.17;;
11443;SDS011;5778;47.856;12.154;2022-12-11T12:53:53;29.60;;;19.70;;
11443;SDS011;5778;47.856;12.154;2022-12-11T12:56:23;51.30;;;32.33;;
11443;SDS011;5778;47.856;12.154;2022-12-11T12:58:51;20.63;;;14.33;;
11443;SDS011;5778;47.856;12.154;2022-12-11T13:01:18;19.97;;;13.47;;
11443;SDS011;5778;47.856;12.154;2022-12-11T13:03:48;18.93;;;13.70;;
11443;SDS011;5778;47.856;12.154;2022-12-11T13:06:27;18.00;;;12.87;;
11443;SDS011;5778;47.856;12.154;2022-12-11T13:08:57;18.47;;;14.17;;
11443;SDS011;5778;47.856;12.154;2022-12-11T13:11:35;26.23;;;23.13;;
11443;SDS011;5778;47.856;12.154;2022-12-11T13:14:03;20.87;;;15.33;;
11443;SDS011;5778;47.856;12.154;2022-12-11T13:16:34;17.83;;;13.23;;
11443;SDS011;5778;47.856;12.154;2022-12-11T13:19:02;23.00;;;18.23;;
11443;SDS011;5778;47.856;12.154;2022-12-11T13:21:53;20.17;;;15.13;;
11443;SDS011;5778;47.856;12.154;2022-12-11T13:24:23;19.33;;;15.77;;
11443;SDS011;5778;47.856;12.154;2022-12-11T13:26:52;23.10;;;17.53;;
11443;SDS011;5778;47.856;12.154;2022-12-11T13:29:29;19.97;;;14.27;;
11443;SDS011;5778;47.856;12.154;2022-12-11T13:31:58;19.83;;;15.47;;
11443;SDS011;5778;47.856;12.154;2022-12-11T13:34:27;22.03;;;18.07;;
11443;SDS011;5778;47.856;12.154;2022-12-11T13:36:59;14.77;;;11.07;;
11443;SDS011;5778;47.856;12.154;2022-12-11T13:39:28;22.77;;;16.97;;
11443;SDS011;5778;47.856;12.154;2022-12-11T13:41:59;23.53;;;16.70;;
11443;SDS011;5778;47.856;12.154;2022-12-11T13:44:32;23.07;;;17.00;;
11443;SDS011;5778;47.856;12.154;2022-12-11T13:47:04;30.40;;;24.23;;
11443;SDS011;5778;47.856;12.154;2022-12-11T13:49:33;22.80;;;16.07;;
11443;SDS011;5778;47.856;12.154;2022-12-11T13:52:04;19.47;;;14.97;;
11443;SDS011;5778;47.856;12.154;2022-12-11T13:54:35;22.03;;;15.40;;
11443;SDS011;5778;47.856;12.154;2022-12-11T13:57:03;24.20;;;18.63;;
11443;SDS011;5778;47.856;12.154;2022-12-11T13:59:41;19.63;;;14.63;;
11443;SDS011;5778;47.856;12.154;2022-12-11T14:02:14;20.03;;;14.57;;
11443;SDS011;5778;47.856;12.154;2022-12-11T14:04:46;19.87;;;13.73;;
11443;SDS011;5778;47.856;12.154;2022-12-11T14:07:19;19.47;;;12.30;;
11443;SDS011;5778;47.856;12.154;2022-12-11T14:09:50;24.23;;;18.07;;
11443;SDS011;5778;47.856;12.154;2022-12-11T14:12:21;21.60;;;15.13;;
11443;SDS011;5778;47.856;12.154;2022-12-11T14:14:49;25.37;;;17.97;;
11443;SDS011;5778;47.856;12.154;2022-12-11T14:17:23;31.33;;;21.60;;
11443;SDS011;5778;47.856;12.154;2022-12-11T14:19:52;38.67;;;26.97;;
11443;SDS011;5778;47.856;12.154;2022-12-11T14:22:23;22.40;;;17.17;;
11443;SDS011;5778;47.856;12.154;2022-12-11T14:24:57;23.43;;;16.00;;
11443;SDS011;5778;47.856;12.154;2022-12-11T14:27:27;16.33;;;10.77;;
11443;SDS011;5778;47.856;12.154;2022-12-11T14:29:54;23.40;;;17.37;;
11443;SDS011;5778;47.856;12.154;2022-12-11T14:32:24;15.43;;;11.00;;
11443;SDS011;5778;47.856;12.154;2022-12-11T14:35:03;53.73;;;31.40;;
11443;SDS011;5778;47.856;12.154;2022-12-11T14:37:37;24.23;;;16.23;;
11443;SDS011;5778;47.856;12.154;2022-12-11T14:40:07;18.57;;;12.87;;
11443;SDS011;5778;47.856;12.154;2022-12-11T14:42:41;45.70;;;40.80;;
11443;SDS011;5778;47.856;12.154;2022-12-11T14:45:15;38.60;;;33.30;;
11443;SDS011;5778;47.856;12.154;2022-12-11T14:47:46;26.50;;;20.43;;
11443;SDS011;5778;47.856;12.154;2022-12-11T14:50:15;23.87;;;20.23;;
11443;SDS011;5778;47.856;12.154;2022-12-11T14:52:46;15.87;;;12.20;;
11443;SDS011;5778;47.856;12.154;2022-12-11T14:55:19;19.57;;;13.77;;
11443;SDS011;5778;47.856;12.154;2022-12-11T14:57:49;20.40;;;13.47;;
11443;SDS011;5778;47.856;12.154;2022-12-11T15:00:23;21.80;;;14.57;;
11443;SDS011;5778;47.856;12.154;2022-12-11T15:02:58;16.73;;;11.63;;
11443;SDS011;5778;47.856;12.154;2022-12-11T15:05:27;17.60;;;13.17;;